• Join FlightAware (Why Join?)
  • Login
  • US Flag 
11:28AM EST


 

Airport Tracker/Info


-or-


 

Live Flight TrackerFlight Track Log ✈ AAY846 ✈ 03-Feb-2014 ✈ KSFB - KPIA

Flight Track Log - Related Links

Times and Time Zones

All times are in EST time to prevent confusion due to time zone crossing. See the AAY846 flight status page for this flight to view local times or setup timezone preferences in your user account.

Time Position Orientation Groundspeed Altitude Reporting Facility
EST Latitude Longitude Course Direction KTS MPH feet Rate Location/Type
10:34AM 28.7833 -81.2500 283° West 196 226 800  Level Orlando TRACON
10:35AM 28.8000 -81.3333 283° West 239 275 3,100 1,980 Climbing Orlando TRACON
10:36AM 28.9025 -81.3511 351° North 294 338 6,100 1,620 Climbing Jacksonville Center
10:37AM 28.9819 -81.3711 348° North 294 338 7,000 600 Climbing Jacksonville Center
10:38AM 29.0594 -81.3864 350° North 294 338 7,400 1,500 Climbing Jacksonville Center
10:39AM 29.1386 -81.3925 356° North 294 338 10,000 1,920 Climbing Jacksonville Center
10:40AM 29.2328 -81.4006 356° North 307 353 11,300 1,560 Climbing Jacksonville Center
10:41AM 29.3372 -81.4133 354° North 345 397 13,200 2,160 Climbing Jacksonville Center
10:42AM 29.4647 -81.4281 354° North 417 480 15,700 2,280 Climbing Jacksonville Center
10:43AM 29.5819 -81.4406 355° North 423 487 17,800 1,860 Climbing Jacksonville Center
10:44AM 29.7011 -81.4556 354° North 423 487 19,500 1,680 Climbing Jacksonville Center
10:45AM 29.8103 -81.5186 333° Northwest 423 487 21,200 1,740 Climbing Jacksonville Center
10:46AM 29.9175 -81.5914 330° Northwest 423 487 23,000 1,920 Climbing Jacksonville Center
10:47AM 30.0247 -81.6667 329° Northwest 438 504 25,100 1,980 Climbing Jacksonville Center
10:48AM 30.1297 -81.7375 330° Northwest 449 517 27,000 1,980 Climbing Jacksonville Center
10:49AM 30.2306 -81.8083 329° Northwest 430 495 29,100 1,500 Climbing Jacksonville Center
10:50AM 30.3272 -81.8697 331° Northwest 430 495 30,100 1,020 Climbing Jacksonville Center
10:51AM 30.4281 -81.9458 327° Northwest 435 501 31,200 1,080 Climbing Jacksonville Center
10:52AM 30.5286 -82.0172 329° Northwest 435 501 32,300 840 Climbing Jacksonville Center
10:53AM 30.6294 -82.0886 329° Northwest 429 494 33,000 300 Climbing Jacksonville Center
10:54AM 30.7300 -82.1603 329° Northwest 429 494 33,000  Level Jacksonville Center
10:55AM 30.8347 -82.2344 329° Northwest 434 499 33,000  Level Jacksonville Center
10:56AM 30.9417 -82.3089 329° Northwest 434 499 33,000  Level Jacksonville Center
10:57AM 31.0442 -82.3808 329° Northwest 434 499 33,000  Level Jacksonville Center
10:59AM 31.2783 -82.5397 330° Northwest 437 503 33,000  Level Atlanta Center
11:00AM 31.3753 -82.6161 326° Northwest 437 503 33,000  Level Atlanta Center
11:01AM 31.4783 -82.6900 329° Northwest 432 497 33,000  Level Atlanta Center
11:02AM 31.5792 -82.7592 330° Northwest 432 497 33,000  Level Atlanta Center
11:03AM 31.6803 -82.8333 328° Northwest 432 497 33,000  Level Atlanta Center
11:04AM 31.7811 -82.9053 329° Northwest 432 497 33,000  Level Atlanta Center
11:05AM 31.8839 -82.9797 328° Northwest 432 497 33,000  Level Atlanta Center
11:06AM 31.9869 -83.0497 330° Northwest 432 497 33,000  Level Atlanta Center
11:07AM 32.0897 -83.1219 329° Northwest 432 497 33,000 240 Level Atlanta Center
11:08AM 32.1925 -83.1897 331° Northwest 432 497 33,500 480 Climbing Atlanta Center
11:09AM 32.2953 -83.2600 330° Northwest 427 491 34,000 240 Climbing Atlanta Center
11:10AM 32.3978 -83.3281 331° Northwest 427 491 34,000  Level Atlanta Center
11:11AM 32.4964 -83.3986 329° Northwest 422 486 34,000  Level Atlanta Center
11:12AM 32.5969 -83.4669 330° Northwest 422 486 34,000  Level Atlanta Center
11:13AM 32.6994 -83.5328 332° Northwest 422 486 34,000  Level Atlanta Center
11:14AM 32.8000 -83.6039 329° Northwest 422 486 34,000  Level Atlanta Center
11:15AM 32.9025 -83.6728 331° Northwest 422 486 34,000  Level Atlanta Center
11:16AM 33.0028 -83.7467 328° Northwest 422 486 34,000  Level Atlanta Center
11:17AM 33.1053 -83.8181 330° Northwest 427 491 34,000  Level Atlanta Center
11:18AM 33.2075 -83.8850 331° Northwest 422 486 34,000  Level Atlanta Center
11:19AM 33.3100 -83.9567 330° Northwest 422 486 34,000  Level Atlanta Center
11:20AM 33.4144 -84.0289 330° Northwest 427 491 34,000  Level Atlanta Center
11:21AM 33.5144 -84.1011 329° Northwest 420 483 34,000  Level Atlanta Center
11:22AM 33.6167 -84.1711 330° Northwest 425 489 34,000  Level Atlanta Center
11:23AM 33.7064 -84.2386 328° Northwest 425 489 34,000  Level Atlanta Center
11:24AM 33.8064 -84.3064 331° Northwest 419 482 34,000  Level Atlanta Center
11:25AM 33.9022 -84.3792 328° Northwest 424 488 34,000  Level Atlanta Center
11:26AM 34.0169 -84.4572 331° Northwest 424 488 34,000  Level Atlanta Center
11:27AM 34.1167 -84.5281 330° Northwest 424 488 34,000  Level Atlanta Center
11:28AM 34.2231 -84.5992 331° Northwest 424 488 34,000  Level Atlanta Center
11:29AM 34.3125 -84.6650 329° Northwest 424 488 34,000  Level Atlanta Center
11:30AM 34.4100 -84.7361 329° Northwest 419 482 34,000  Level Atlanta Center
11:31AM 34.5078 -84.8050 330° Northwest 414 476 34,000  Level Atlanta Center
11:32AM 34.6094 -84.8767 330° Northwest 409 471 34,000  Level Atlanta Center
11:33AM 34.7133 -84.9561 328° Northwest 409 471 34,000  Level Atlanta Center
11:34AM 34.8108 -85.0281 329° Northwest 409 471 34,000  Level Atlanta Center
11:35AM 34.9083 -85.0975 330° Northwest 409 471 34,000  Level Atlanta Center
11:36AM 35.0100 -85.1697 330° Northwest 414 476 34,000  Level Atlanta Center
11:39AM 35.2406 -85.3375 329° Northwest 407 468 34,000  Level Memphis Center
11:40AM 35.3367 -85.4103 328° Northwest 405 466 34,000  Level Memphis Center
11:41AM 35.4342 -85.4808 329° Northwest 405 466 34,000  Level Memphis Center
11:42AM 35.5506 -85.5692 328° Northwest 406 467 34,000  Level Memphis Center
11:43AM 35.6478 -85.6414 329° Northwest 405 466 34,000  Level Memphis Center
11:44AM 35.7444 -85.7142 329° Northwest 406 467 34,000  Level Memphis Center
11:45AM 35.8406 -85.7869 328° Northwest 404 465 34,000  Level Memphis Center
11:46AM 35.9414 -85.8622 329° Northwest 405 466 34,000  Level Memphis Center
11:47AM 36.0372 -85.9344 329° Northwest 402 463 34,000  Level Memphis Center
11:48AM 36.1333 -86.0075 328° Northwest 401 461 34,000  Level Memphis Center
11:49AM 36.2292 -86.0803 329° Northwest 401 461 34,000  Level Memphis Center
11:50AM 36.3244 -86.1522 329° Northwest 399 459 34,000  Level Memphis Center
11:51AM 36.4356 -86.2364 329° Northwest 399 459 34,000  Level Memphis Center
11:52AM 36.5308 -86.3086 329° Northwest 400 460 34,000  Level Memphis Center
11:53AM 36.6267 -86.3814 329° Northwest 401 461 34,000  Level Memphis Center
11:54AM 36.7217 -86.4547 328° Northwest 401 461 34,000  Level Memphis Center
11:55AM 36.8167 -86.5283 328° Northwest 400 460 34,000  Level Memphis Center
11:56AM 36.9119 -86.6006 329° Northwest 398 458 34,000  Level Memphis Center
11:57AM 37.0072 -86.6747 328° Northwest 401 461 34,000  Level Memphis Center
11:58AM 37.1181 -86.7614 328° Northwest 400 460 34,000  Level Memphis Center
12:00PM 37.2119 -86.8339 328° Northwest 397 457 34,000  Level Indianapolis Center
12:01PM 37.3081 -86.9086 328° Northwest 402 463 34,000  Level Indianapolis Center
12:02PM 37.4042 -86.9831 328° Northwest 403 464 34,000  Level Indianapolis Center
12:03PM 37.5164 -87.0722 328° Northwest 405 466 34,000  Level Indianapolis Center
12:04PM 37.6092 -87.1467 328° Northwest 410 472 34,000  Level Indianapolis Center
12:05PM 37.7100 -87.2289 327° Northwest 408 470 34,000  Level Indianapolis Center
12:06PM 37.8014 -87.3036 327° Northwest 408 470 34,000  Level Indianapolis Center
12:07PM 37.8994 -87.3803 328° Northwest 409 471 34,000  Level Indianapolis Center
12:08PM 37.9969 -87.4586 328° Northwest 410 472 34,000  Level Indianapolis Center
12:09PM 38.0933 -87.5381 327° Northwest 407 468 34,000  Level Indianapolis Center
12:10PM 38.1914 -87.6147 328° Northwest 408 470 34,000  Level Indianapolis Center
12:11PM 38.2894 -87.6936 328° Northwest 411 473 34,000  Level Indianapolis Center
12:12PM 38.3850 -87.7722 327° Northwest 407 468 34,000  Level Indianapolis Center
12:13PM 38.4822 -87.8514 327° Northwest 409 471 34,000  Level Indianapolis Center
12:14PM 38.5781 -87.9283 328° Northwest 405 466 34,000  Level Indianapolis Center
12:15PM 38.6739 -88.0069 327° Northwest 407 468 34,000  Level Indianapolis Center
12:16PM 38.7686 -88.0853 327° Northwest 403 464 34,000  Level Indianapolis Center
12:17PM 38.8628 -88.1633 327° Northwest 400 460 34,000  Level Indianapolis Center
12:18PM 38.9567 -88.2383 328° Northwest 396 456 34,000 -720 Level Indianapolis Center
12:19PM 39.0686 -88.3297 328° Northwest 393 452 32,600 -1,380 Descending Indianapolis Center
12:20PM 39.1603 -88.4053 327° Northwest 389 448 31,300 -1,320 Descending Indianapolis Center
12:21PM 39.2508 -88.4803 327° Northwest 386 444 30,000 -1,320 Descending Indianapolis Center
12:22PM 39.3467 -88.5594 327° Northwest 404 465 28,700 -1,320 Descending Indianapolis Center
12:23PM 39.4408 -88.6372 327° Northwest 403 464 27,300 -1,620 Descending Indianapolis Center
12:24PM 39.5278 -88.7128 326° Northwest 384 442 25,500 -1,680 Descending Indianapolis Center
12:25PM 39.6061 -88.7789 327° Northwest 378 435 23,900 -1,860 Descending Indianapolis Center
12:26PM 39.7117 -88.8653 328° Northwest 374 430 21,700 -1,980 Descending Indianapolis Center
12:27PM 39.7956 -88.9397 326° Northwest 370 426 19,900 -1,740 Descending Indianapolis Center
12:28PM 39.8442 -88.9825 326° Northwest 373 429 19,000 -1,500 Descending Chicago Center
12:29PM 39.9158 -89.0414 328° Northwest 376 433 17,900 -1,620 Descending Kansas City Center
12:30PM 40.0031 -89.1167 327° Northwest 377 434 16,100 -1,800 Descending Kansas City Center
12:31PM 40.0908 -89.1903 327° Northwest 375 432 14,300 -1,740 Descending Kansas City Center
12:32PM 40.1972 -89.2819 327° Northwest 378 435 12,200 -1,500 Descending Chicago Center
12:33PM 40.2772 -89.3519 326° Northwest 353 406 11,000 -1,620 Descending Chicago Center
12:34PM 40.3581 -89.4233 326° Northwest 311 358 8,900 -2,100 Descending Chicago Center
12:35PM 40.4219 -89.4667 333° Northwest 279 321 6,800 -1,440 Descending Chicago Center
12:36PM 40.4806 -89.5089 331° Northwest 257 296 6,000 -1,260 Descending Chicago Center
12:37PM 40.5303 -89.5458 331° Northwest 230 265 4,200 -1,560 Descending Chicago Center
12:38PM 40.5781 -89.5814 331° Northwest 211 243 2,900 -1,020 Descending Chicago Center
12:39PM 40.6192 -89.6161 327° Northwest 193 222 2,200 -960 Descending Chicago Center
12:40PM 40.6486 -89.6692 306° West 162 186 1,000 -840 Descending Chicago Center
12:41PM 40.6683 -89.7039 307° West 151 174 600 -420 Descending Chicago Center